createdAt,value
2018-01-15T00:01:38.193Z,79.91
2018-01-15T00:04:06.087Z,80.25
2018-01-15T00:06:33.902Z,80.26
2018-01-15T00:09:01.450Z,80.14
2018-01-15T00:11:29.035Z,80.13
2018-01-15T00:13:56.689Z,80.43
2018-01-15T00:16:24.328Z,80.39
2018-01-15T00:18:51.964Z,80.44
2018-01-15T00:21:19.629Z,80.81
2018-01-15T00:23:47.532Z,80.97
2018-01-15T00:26:15.199Z,81.09
2018-01-15T00:28:42.793Z,81.09
2018-01-15T00:31:10.666Z,81.22
2018-01-15T00:33:38.292Z,81.36
2018-01-15T00:36:06.126Z,81.46
2018-01-15T00:38:33.709Z,81.38
2018-01-15T00:41:01.558Z,81.57
2018-01-15T00:43:29.187Z,81.75
2018-01-15T00:45:56.997Z,81.84
2018-01-15T00:48:24.649Z,81.90
2018-01-15T00:50:52.252Z,82.04
2018-01-15T00:53:19.822Z,81.87
2018-01-15T00:55:47.450Z,82.05
2018-01-15T00:58:15.057Z,82.22
2018-01-15T01:00:43.017Z,82.26
2018-01-15T01:03:10.930Z,82.27
2018-01-15T01:05:38.553Z,82.12
2018-01-15T01:08:06.235Z,82.38
2018-01-15T01:10:34.024Z,82.52
2018-01-15T01:13:01.746Z,82.60
2018-01-15T01:15:29.428Z,82.65
2018-01-15T01:17:57.001Z,82.65
2018-01-15T01:20:24.967Z,82.69
2018-01-15T01:22:53.140Z,82.86
2018-01-15T01:25:20.794Z,83.01
2018-01-15T01:27:48.432Z,83.03
2018-01-15T01:30:16.299Z,83.14
2018-01-15T01:32:43.936Z,83.25
2018-01-15T01:35:11.614Z,83.10
2018-01-15T01:37:39.259Z,83.08
2018-01-15T01:40:06.945Z,83.08
2018-01-15T01:42:34.819Z,83.30
2018-01-15T01:45:02.638Z,83.35
2018-01-15T01:47:30.252Z,83.51
2018-01-15T01:49:58.155Z,83.63
2018-01-15T01:52:25.830Z,83.44
2018-01-15T01:54:53.499Z,83.59
2018-01-15T01:57:21.291Z,83.57
2018-01-15T01:59:49.058Z,83.62
2018-01-15T02:02:16.899Z,83.29
2018-01-15T02:04:44.617Z,83.09
2018-01-15T02:07:12.286Z,82.95
2018-01-15T02:09:40.241Z,83.02
2018-01-15T02:12:07.876Z,82.96
2018-01-15T02:14:35.587Z,82.90
2018-01-15T02:17:03.320Z,82.74
2018-01-15T02:19:30.987Z,82.79
2018-01-15T02:21:58.723Z,82.60
2018-01-15T02:24:26.441Z,82.67
2018-01-15T02:26:54.716Z,82.61
2018-01-15T02:29:22.366Z,82.79
2018-01-15T02:31:50.071Z,82.61
2018-01-15T02:34:18.332Z,82.75
2018-01-15T02:36:46.144Z,82.75
2018-01-15T02:39:13.857Z,82.88
2018-01-15T02:41:41.612Z,82.98
2018-01-15T02:44:09.269Z,83.06
2018-01-15T02:46:36.872Z,82.96
2018-01-15T02:49:04.684Z,83.02
2018-01-15T02:51:32.307Z,82.99
2018-01-15T02:54:00.070Z,83.12
2018-01-15T02:56:28.312Z,83.22
2018-01-15T02:58:56.139Z,83.33
2018-01-15T03:01:23.772Z,83.20
2018-01-15T03:03:51.505Z,83.19
2018-01-15T03:06:19.294Z,83.10
2018-01-15T03:08:47.753Z,82.98
2018-01-15T03:11:15.327Z,83.18
2018-01-15T03:13:42.923Z,83.03
2018-01-15T03:16:10.546Z,82.99
2018-01-15T03:18:38.138Z,82.92
2018-01-15T03:21:05.715Z,82.86
2018-01-15T03:23:33.321Z,83.04
2018-01-15T03:26:00.960Z,82.78
2018-01-15T03:28:28.642Z,82.84
2018-01-15T03:30:56.310Z,82.56
2018-01-15T03:33:24.019Z,82.74
2018-01-15T03:35:51.691Z,82.66
2018-01-15T03:38:19.258Z,82.64
2018-01-15T03:40:46.871Z,82.57
2018-01-15T03:43:14.768Z,82.65
2018-01-15T03:45:42.687Z,82.46
2018-01-15T03:48:10.487Z,82.30
2018-01-15T03:50:38.420Z,82.45
2018-01-15T03:53:05.989Z,82.33
2018-01-15T03:55:33.572Z,82.56
2018-01-15T03:58:01.175Z,82.48
2018-01-15T04:00:28.812Z,82.27
2018-01-15T04:02:56.438Z,82.40
2018-01-15T04:05:24.048Z,82.48
2018-01-15T04:07:51.656Z,82.42
2018-01-15T04:10:19.301Z,82.53
2018-01-15T04:12:46.980Z,82.70
2018-01-15T04:15:14.585Z,82.47
2018-01-15T04:17:42.464Z,82.50
2018-01-15T04:20:10.034Z,82.51
2018-01-15T04:22:37.736Z,82.46
2018-01-15T04:25:05.310Z,82.53
2018-01-15T04:27:32.874Z,82.63
2018-01-15T04:30:00.814Z,82.62
2018-01-15T04:32:28.399Z,82.54
2018-01-15T04:34:56.029Z,82.53
2018-01-15T04:37:23.594Z,82.37
2018-01-15T04:39:51.286Z,82.29
2018-01-15T04:42:19.225Z,82.43
2018-01-15T04:44:47.071Z,82.41
2018-01-15T04:47:14.782Z,82.67
2018-01-15T04:49:42.357Z,82.55
2018-01-15T04:52:10.194Z,82.30
2018-01-15T04:54:37.748Z,82.31
2018-01-15T04:57:05.388Z,82.44
2018-01-15T04:59:33.276Z,82.36
2018-01-15T05:02:00.909Z,82.12
2018-01-15T05:04:28.510Z,82.15
2018-01-15T05:06:56.108Z,82.33
2018-01-15T05:09:23.831Z,82.24
2018-01-15T05:11:51.415Z,82.35
2018-01-15T05:14:19.009Z,82.06
2018-01-15T05:16:46.635Z,82.21
2018-01-15T05:19:14.236Z,82.08
2018-01-15T05:21:41.802Z,82.01
2018-01-15T05:24:09.449Z,81.86
2018-01-15T05:26:37.020Z,82.01
2018-01-15T05:29:04.857Z,81.98
2018-01-15T05:31:32.781Z,82.38
2018-01-15T05:34:01.062Z,82.30
2018-01-15T05:36:28.648Z,82.09
2018-01-15T05:38:56.583Z,81.90
2018-01-15T05:41:24.220Z,82.18
2018-01-15T05:43:51.939Z,82.23
2018-01-15T05:46:19.539Z,82.30
2018-01-15T05:48:47.173Z,82.24
2018-01-15T05:51:14.991Z,82.29
2018-01-15T05:53:42.687Z,82.08
2018-01-15T05:56:10.263Z,82.15
2018-01-15T05:58:37.920Z,82.30
2018-01-15T06:01:05.527Z,82.26
2018-01-15T06:03:33.172Z,82.31
2018-01-15T06:06:00.729Z,82.45
2018-01-15T06:08:29.381Z,82.29
2018-01-15T06:10:56.950Z,82.35
2018-01-15T06:13:24.758Z,82.37
2018-01-15T06:15:52.426Z,82.60
2018-01-15T06:18:19.990Z,82.51
2018-01-15T06:20:47.549Z,82.70
2018-01-15T06:23:15.414Z,82.88
2018-01-15T06:25:43.107Z,82.73
2018-01-15T06:28:10.938Z,82.75
2018-01-15T06:30:38.552Z,83.03
2018-01-15T06:33:06.217Z,83.13
2018-01-15T06:35:33.840Z,83.08
2018-01-15T06:38:01.732Z,83.23
2018-01-15T06:40:29.344Z,83.26
2018-01-15T06:42:56.983Z,83.30
2018-01-15T06:45:24.568Z,83.48
2018-01-15T06:47:52.368Z,83.58
2018-01-15T06:50:20.052Z,83.55
2018-01-15T06:52:47.619Z,83.72
2018-01-15T06:55:15.222Z,83.61
2018-01-15T06:57:42.887Z,83.61
2018-01-15T07:00:10.491Z,83.72
2018-01-15T07:02:38.058Z,83.97
2018-01-15T07:05:05.876Z,84.01
2018-01-15T07:07:33.515Z,84.20
2018-01-15T07:10:01.127Z,84.17
2018-01-15T07:12:28.740Z,84.13
2018-01-15T07:14:56.432Z,84.26
2018-01-15T07:17:24.116Z,84.33
2018-01-15T07:19:51.684Z,84.42
2018-01-15T07:22:19.631Z,84.37
2018-01-15T07:24:47.193Z,84.49
2018-01-15T07:27:14.850Z,84.55
2018-01-15T07:29:42.491Z,84.71
2018-01-15T07:32:10.087Z,84.62
2018-01-15T07:34:37.796Z,84.75
2018-01-15T07:37:05.426Z,84.77
2018-01-15T07:39:33.375Z,84.80
2018-01-15T07:42:01.108Z,84.76
2018-01-15T07:44:28.718Z,84.83
2018-01-15T07:46:56.363Z,84.93
2018-01-15T07:49:23.939Z,84.92
2018-01-15T07:51:51.600Z,84.91
2018-01-15T07:54:19.356Z,84.99
2018-01-15T07:56:46.945Z,85.09
2018-01-15T07:59:14.504Z,85.12
2018-01-15T08:01:43.180Z,85.38
2018-01-15T08:04:10.824Z,85.25
2018-01-15T08:06:38.432Z,85.17
2018-01-15T08:09:06.023Z,85.32
2018-01-15T08:11:33.915Z,85.24
2018-01-15T08:14:01.877Z,85.24
2018-01-15T08:16:29.490Z,85.24
2018-01-15T08:18:57.088Z,85.50
2018-01-15T08:21:24.722Z,85.54
2018-01-15T08:23:52.392Z,85.74
2018-01-15T08:26:20.022Z,85.85
2018-01-15T08:28:47.953Z,85.83
2018-01-15T08:31:15.628Z,85.92
2018-01-15T08:33:43.608Z,86.10
2018-01-15T08:36:11.165Z,86.12
2018-01-15T08:38:38.806Z,86.16
2018-01-15T08:41:06.419Z,86.23
2018-01-15T08:43:33.985Z,86.26
2018-01-15T08:46:01.909Z,86.23
2018-01-15T08:48:29.509Z,86.34
2018-01-15T08:50:57.089Z,86.47
2018-01-15T08:53:24.705Z,86.42
2018-01-15T08:55:52.502Z,86.51
2018-01-15T08:58:20.107Z,86.50
2018-01-15T09:00:47.799Z,86.51
2018-01-15T09:03:15.427Z,86.47
2018-01-15T09:05:43.000Z,86.41
2018-01-15T09:08:10.694Z,86.33
2018-01-15T09:10:38.249Z,86.38
2018-01-15T09:13:05.876Z,86.39
2018-01-15T09:15:33.562Z,86.35
2018-01-15T09:18:01.195Z,86.46
2018-01-15T09:20:28.902Z,86.40
2018-01-15T09:22:56.522Z,86.40
2018-01-15T09:25:24.142Z,86.35
2018-01-15T09:27:51.793Z,86.46
2018-01-15T09:30:19.393Z,86.46
2018-01-15T09:32:47.064Z,86.48
2018-01-15T09:35:14.687Z,86.67
2018-01-15T09:37:43.125Z,86.77
2018-01-15T09:40:10.742Z,87.11
2018-01-15T09:42:38.338Z,88.02
2018-01-15T09:45:06.026Z,88.01
2018-01-15T09:47:33.624Z,88.00
2018-01-15T09:50:01.311Z,88.21
2018-01-15T09:52:28.875Z,88.27
2018-01-15T09:54:56.579Z,88.48
2018-01-15T09:57:24.219Z,88.62
2018-01-15T09:59:51.909Z,88.67
2018-01-15T10:02:19.510Z,88.66
2018-01-15T10:04:47.078Z,88.48
2018-01-15T10:07:14.678Z,88.41
2018-01-15T10:09:42.301Z,88.65
2018-01-15T10:12:09.956Z,88.97
2018-01-15T10:14:38.621Z,88.80
2018-01-15T10:17:06.552Z,88.84
2018-01-15T10:19:34.137Z,88.94
2018-01-15T10:22:01.967Z,88.77
2018-01-15T10:24:29.605Z,88.56
2018-01-15T10:26:57.881Z,88.61
2018-01-15T10:29:25.463Z,88.68
2018-01-15T10:31:53.562Z,88.54
2018-01-15T10:34:21.489Z,88.70
2018-01-15T10:36:49.116Z,88.55
2018-01-15T10:39:16.778Z,88.52
2018-01-15T10:41:44.380Z,88.58
2018-01-15T10:44:11.992Z,88.45
2018-01-15T10:46:39.628Z,88.43
2018-01-15T10:49:07.309Z,88.25
2018-01-15T10:51:34.901Z,88.12
2018-01-15T10:54:02.457Z,88.04
2018-01-15T10:56:30.358Z,87.85
2018-01-15T10:58:57.959Z,87.52
2018-01-15T11:01:27.530Z,87.16
2018-01-15T11:03:55.091Z,87.02
2018-01-15T11:06:22.670Z,87.07
2018-01-15T11:08:50.607Z,86.96
2018-01-15T11:11:18.222Z,86.77
2018-01-15T11:13:45.784Z,86.86
2018-01-15T11:16:13.375Z,86.93
2018-01-15T11:18:41.258Z,86.79
2018-01-15T11:21:08.917Z,86.96
2018-01-15T11:23:36.549Z,87.05
2018-01-15T11:26:04.138Z,86.79
2018-01-15T11:28:32.034Z,86.82
2018-01-15T11:30:59.628Z,87.04
2018-01-15T11:33:27.605Z,86.80
2018-01-15T11:35:55.254Z,86.71
2018-01-15T11:38:23.158Z,86.72
2018-01-15T11:40:50.807Z,86.60
2018-01-15T11:43:18.508Z,86.35
2018-01-15T11:45:46.094Z,86.43
2018-01-15T11:48:13.756Z,86.27
2018-01-15T11:50:41.414Z,86.30
2018-01-15T11:53:09.027Z,86.27
2018-01-15T11:55:36.619Z,86.03
2018-01-15T11:58:04.197Z,85.78
2018-01-15T12:00:31.804Z,85.62
2018-01-15T12:02:59.399Z,85.34
2018-01-15T12:05:26.997Z,85.39
2018-01-15T12:07:54.657Z,85.21
2018-01-15T12:10:22.249Z,85.27
2018-01-15T12:12:50.115Z,84.94
2018-01-15T12:15:17.844Z,84.91
2018-01-15T12:17:45.427Z,84.76
2018-01-15T12:20:13.176Z,84.24
2018-01-15T12:22:40.742Z,84.22
2018-01-15T12:25:08.364Z,84.04
2018-01-15T12:27:35.995Z,83.76
2018-01-15T12:30:03.702Z,83.65
2018-01-15T12:32:31.400Z,83.63
2018-01-15T12:34:59.726Z,83.21
2018-01-15T12:37:28.197Z,83.05
2018-01-15T12:39:55.760Z,82.60
2018-01-15T12:42:23.340Z,82.62
2018-01-15T12:44:51.004Z,82.56
2018-01-15T12:47:18.668Z,82.52
2018-01-15T12:49:46.300Z,82.83
2018-01-15T12:52:13.902Z,82.71
2018-01-15T12:54:41.606Z,82.23
2018-01-15T12:57:09.601Z,82.33
2018-01-15T12:59:37.235Z,82.37
2018-01-15T13:02:04.826Z,82.08
2018-01-15T13:04:32.431Z,81.90
2018-01-15T13:07:00.059Z,82.13
2018-01-15T13:09:27.692Z,82.33
2018-01-15T13:11:59.342Z,81.93
2018-01-15T13:14:28.782Z,81.86
2018-01-15T13:16:56.649Z,81.85
2018-01-15T13:19:33.132Z,82.17
2018-01-15T13:22:00.806Z,82.57
2018-01-15T13:24:28.398Z,83.10
2018-01-15T13:27:06.984Z,83.49
2018-01-15T13:29:34.631Z,83.92
2018-01-15T13:32:02.324Z,84.10
2018-01-15T13:34:29.902Z,83.87
2018-01-15T13:36:57.796Z,83.93
2018-01-15T13:39:25.685Z,84.27
2018-01-15T13:41:53.329Z,84.63
2018-01-15T13:44:20.914Z,84.96
2018-01-15T13:46:48.534Z,85.55
2018-01-15T13:49:16.424Z,85.43
2018-01-15T13:51:44.001Z,85.73
2018-01-15T13:54:11.658Z,86.30
2018-01-15T13:56:39.249Z,86.39
2018-01-15T13:59:06.888Z,86.81
2018-01-15T14:01:34.473Z,86.91
2018-01-15T14:04:17.341Z,87.19
2018-01-15T14:06:44.964Z,87.59
2018-01-15T14:09:12.755Z,87.72
2018-01-15T14:11:40.366Z,87.87
2018-01-15T14:14:08.033Z,88.08
2018-01-15T14:16:36.667Z,88.32
2018-01-15T14:19:04.700Z,88.33
2018-01-15T14:21:32.288Z,87.95
2018-01-15T14:23:59.943Z,88.28
2018-01-15T14:26:27.556Z,87.99
2018-01-15T14:28:55.496Z,88.67
2018-01-15T14:31:23.166Z,88.24
2018-01-15T14:33:51.199Z,87.82
2018-01-15T14:36:18.983Z,87.73
2018-01-15T14:38:46.782Z,88.35
2018-01-15T14:41:15.634Z,88.13
2018-01-15T14:43:43.221Z,87.92
2018-01-15T14:46:12.148Z,87.98
2018-01-15T14:48:39.869Z,87.99
2018-01-15T14:51:07.846Z,87.36
2018-01-15T14:53:35.701Z,87.86
2018-01-15T14:56:03.270Z,87.95
2018-01-15T14:58:30.869Z,87.94
2018-01-15T15:00:58.417Z,87.85
2018-01-15T15:03:26.031Z,87.98
2018-01-15T15:05:53.581Z,87.91
2018-01-15T15:08:21.265Z,88.26
2018-01-15T15:10:57.899Z,88.68
2018-01-15T15:13:25.573Z,88.90
2018-01-15T15:15:53.579Z,88.81
2018-01-15T15:18:21.202Z,89.26
2018-01-15T15:20:48.887Z,89.08
2018-01-15T15:23:16.768Z,88.87
2018-01-15T15:25:44.552Z,89.30
2018-01-15T15:28:12.299Z,89.32
2018-01-15T15:30:39.942Z,89.42
2018-01-15T15:33:08.480Z,89.32
2018-01-15T15:35:36.145Z,89.53
2018-01-15T15:38:03.876Z,89.90
2018-01-15T15:40:31.941Z,89.90
2018-01-15T15:42:59.671Z,90.06
2018-01-15T15:45:28.880Z,90.36
2018-01-15T15:47:56.939Z,90.33
2018-01-15T15:50:25.900Z,90.72
2018-01-15T15:52:53.669Z,91.03
2018-01-15T15:55:21.315Z,90.87
2018-01-15T15:57:49.033Z,91.03
2018-01-15T16:00:17.171Z,90.93
2018-01-15T16:05:19.317Z,91.11
2018-01-15T16:07:47.119Z,90.97
2018-01-15T16:10:14.886Z,91.05
2018-01-15T16:12:42.944Z,91.13
2018-01-15T16:15:11.103Z,91.43
2018-01-15T16:17:38.762Z,91.55
2018-01-15T16:20:06.752Z,91.41
2018-01-15T16:22:34.395Z,91.43
2018-01-15T16:25:02.056Z,91.54
2018-01-15T16:27:29.892Z,91.80
2018-01-15T16:29:58.041Z,92.03
2018-01-15T16:32:25.725Z,92.13
2018-01-15T16:34:54.634Z,92.18
2018-01-15T16:37:22.332Z,92.12
2018-01-15T16:39:49.996Z,92.27
2018-01-15T16:42:17.666Z,92.32
2018-01-15T16:44:45.387Z,92.26
2018-01-15T16:47:13.257Z,92.58
2018-01-15T16:49:41.225Z,92.73
2018-01-15T16:52:08.824Z,92.58
2018-01-15T16:54:36.536Z,92.86
2018-01-15T16:57:04.701Z,92.69
2018-01-15T16:59:32.625Z,92.83
2018-01-15T17:02:00.290Z,92.84
2018-01-15T17:04:28.301Z,92.67
2018-01-15T17:06:55.923Z,92.61
2018-01-15T17:09:23.587Z,92.50
2018-01-15T17:11:51.271Z,92.45
2018-01-15T17:14:18.923Z,92.53
2018-01-15T17:16:47.264Z,92.51
2018-01-15T17:19:15.140Z,92.54
2018-01-15T17:21:44.066Z,92.35
2018-01-15T17:24:11.997Z,92.40
2018-01-15T17:26:39.694Z,92.26
2018-01-15T17:29:07.629Z,92.39
2018-01-15T17:31:35.377Z,92.57
2018-01-15T17:34:03.021Z,92.45
2018-01-15T17:36:30.624Z,92.38
2018-01-15T17:38:58.258Z,92.44
2018-01-15T17:41:25.901Z,92.13
2018-01-15T17:43:53.660Z,92.19
2018-01-15T17:46:22.250Z,92.04
2018-01-15T17:48:54.421Z,91.87
2018-01-15T17:51:22.542Z,91.76
2018-01-15T17:53:50.274Z,91.59
2018-01-15T17:56:19.168Z,91.54
2018-01-15T17:58:48.187Z,91.69
2018-01-15T18:01:20.659Z,91.22
2018-01-15T18:03:48.719Z,91.17
2018-01-15T18:06:17.365Z,91.11
2018-01-15T18:09:02.310Z,91.21
2018-01-15T18:11:30.036Z,91.26
2018-01-15T18:13:58.130Z,90.70
2018-01-15T18:16:26.137Z,90.80
2018-01-15T18:18:53.912Z,91.22
2018-01-15T18:21:21.762Z,90.98
2018-01-15T18:23:49.581Z,91.05
2018-01-15T18:26:17.390Z,91.22
2018-01-15T18:28:46.697Z,90.96
2018-01-15T18:31:15.340Z,91.25
2018-01-15T18:33:43.107Z,90.87
2018-01-15T18:36:11.078Z,90.51
2018-01-15T18:38:39.183Z,90.54
2018-01-15T18:41:06.984Z,90.85
2018-01-15T18:43:34.771Z,90.92
2018-01-15T18:46:02.666Z,91.14
2018-01-15T18:48:30.441Z,91.12
2018-01-15T18:50:58.205Z,91.01
2018-01-15T18:53:26.245Z,91.19
2018-01-15T18:55:54.030Z,91.36
2018-01-15T18:58:21.949Z,91.51
2018-01-15T19:01:01.731Z,91.15
2018-01-15T19:03:29.571Z,91.54
2018-01-15T19:05:57.324Z,91.38
2018-01-15T19:08:26.582Z,91.09
2018-01-15T19:10:55.532Z,90.81
2018-01-15T19:13:23.418Z,90.68
2018-01-15T19:15:51.331Z,90.88
2018-01-15T19:18:19.143Z,91.03
2018-01-15T19:20:46.817Z,91.30
2018-01-15T19:23:14.536Z,91.50
2018-01-15T19:25:42.300Z,91.37
2018-01-15T19:28:10.018Z,91.74
2018-01-15T19:30:50.416Z,91.78
2018-01-15T19:33:18.213Z,91.60
2018-01-15T19:35:55.051Z,91.83
2018-01-15T19:38:28.951Z,91.66
2018-01-15T19:41:05.992Z,91.74
2018-01-15T19:44:03.394Z,91.84
2018-01-15T19:46:36.814Z,92.23
2018-01-15T19:49:14.654Z,92.59
2018-01-15T19:51:48.856Z,92.66
2018-01-15T19:58:00.370Z,93.12
2018-01-15T20:00:37.675Z,93.56
2018-01-15T20:03:12.437Z,93.80
2018-01-15T21:48:27.925Z,97.93
2018-01-15T21:54:00.606Z,97.83
